sensor_id;sensor_type;location;lat;lon;timestamp;temperature;humidity
30999;DHT22;20549;50.042;8.968;2022-11-02T00:01:55;10.10;99.90
30999;DHT22;20549;50.042;8.968;2022-11-02T00:04:21;10.00;99.90
30999;DHT22;20549;50.042;8.968;2022-11-02T00:06:48;10.00;99.90
30999;DHT22;20549;50.042;8.968;2022-11-02T00:09:14;10.00;99.90
30999;DHT22;20549;50.042;8.968;2022-11-02T00:11:41;10.00;99.90
30999;DHT22;20549;50.042;8.968;2022-11-02T00:14:07;10.00;99.90
30999;DHT22;20549;50.042;8.968;2022-11-02T00:16:35;10.00;99.90
30999;DHT22;20549;50.042;8.968;2022-11-02T00:19:01;10.00;99.90
30999;DHT22;20549;50.042;8.968;2022-11-02T00:21:27;10.00;99.90
30999;DHT22;20549;50.042;8.968;2022-11-02T00:23:54;10.00;99.90
30999;DHT22;20549;50.042;8.968;2022-11-02T00:26:20;10.00;99.90
30999;DHT22;20549;50.042;8.968;2022-11-02T00:28:47;10.00;99.90
30999;DHT22;20549;50.042;8.968;2022-11-02T00:31:14;10.00;99.90
30999;DHT22;20549;50.042;8.968;2022-11-02T00:33:40;10.00;99.90
30999;DHT22;20549;50.042;8.968;2022-11-02T00:36:07;10.00;99.90
30999;DHT22;20549;50.042;8.968;2022-11-02T00:38:33;10.00;99.90
30999;DHT22;20549;50.042;8.968;2022-11-02T00:41:00;9.90;99.90
30999;DHT22;20549;50.042;8.968;2022-11-02T00:43:26;9.90;99.90
30999;DHT22;20549;50.042;8.968;2022-11-02T00:45:53;9.90;99.90
30999;DHT22;20549;50.042;8.968;2022-11-02T00:48:20;9.90;99.90
30999;DHT22;20549;50.042;8.968;2022-11-02T00:50:46;9.90;99.90
30999;DHT22;20549;50.042;8.968;2022-11-02T00:53:13;9.90;99.90
30999;DHT22;20549;50.042;8.968;2022-11-02T00:55:39;9.90;99.90
30999;DHT22;20549;50.042;8.968;2022-11-02T00:58:06;9.90;99.90
30999;DHT22;20549;50.042;8.968;2022-11-02T01:00:33;9.90;99.90
30999;DHT22;20549;50.042;8.968;2022-11-02T01:03:00;9.90;99.90
30999;DHT22;20549;50.042;8.968;2022-11-02T01:05:26;10.00;99.90
30999;DHT22;20549;50.042;8.968;2022-11-02T01:07:52;10.00;99.90
30999;DHT22;20549;50.042;8.968;2022-11-02T01:10:19;10.00;99.90
30999;DHT22;20549;50.042;8.968;2022-11-02T01:12:46;10.00;99.90
30999;DHT22;20549;50.042;8.968;2022-11-02T01:15:12;10.00;99.90
30999;DHT22;20549;50.042;8.968;2022-11-02T01:17:39;10.10;99.90
30999;DHT22;20549;50.042;8.968;2022-11-02T01:20:05;10.10;99.90
30999;DHT22;20549;50.042;8.968;2022-11-02T01:22:32;10.10;99.90
30999;DHT22;20549;50.042;8.968;2022-11-02T01:24:58;10.10;99.90
30999;DHT22;20549;50.042;8.968;2022-11-02T01:27:25;10.10;99.90
30999;DHT22;20549;50.042;8.968;2022-11-02T01:29:52;10.10;99.90
30999;DHT22;20549;50.042;8.968;2022-11-02T01:32:18;10.20;99.90
30999;DHT22;20549;50.042;8.968;2022-11-02T01:34:45;10.20;99.90
30999;DHT22;20549;50.042;8.968;2022-11-02T01:37:11;10.20;99.90
30999;DHT22;20549;50.042;8.968;2022-11-02T01:39:38;10.10;99.90
30999;DHT22;20549;50.042;8.968;2022-11-02T01:42:15;10.10;99.90
30999;DHT22;20549;50.042;8.968;2022-11-02T01:44:32;10.10;99.90
30999;DHT22;20549;50.042;8.968;2022-11-02T01:47:01;10.10;99.90
30999;DHT22;20549;50.042;8.968;2022-11-02T01:49:24;10.10;99.90
30999;DHT22;20549;50.042;8.968;2022-11-02T01:51:56;10.10;99.90
30999;DHT22;20549;50.042;8.968;2022-11-02T01:54:26;10.10;99.90
30999;DHT22;20549;50.042;8.968;2022-11-02T01:56:51;10.10;99.90
30999;DHT22;20549;50.042;8.968;2022-11-02T01:59:18;10.10;99.90
30999;DHT22;20549;50.042;8.968;2022-11-02T02:01:43;10.10;99.90
30999;DHT22;20549;50.042;8.968;2022-11-02T02:04:10;10.10;99.90
30999;DHT22;20549;50.042;8.968;2022-11-02T02:06:36;10.10;99.90
30999;DHT22;20549;50.042;8.968;2022-11-02T02:09:03;10.10;99.90
30999;DHT22;20549;50.042;8.968;2022-11-02T02:11:30;10.10;99.90
30999;DHT22;20549;50.042;8.968;2022-11-02T02:14:18;10.10;99.90
30999;DHT22;20549;50.042;8.968;2022-11-02T02:16:27;10.20;99.90
30999;DHT22;20549;50.042;8.968;2022-11-02T02:18:51;10.10;99.90
30999;DHT22;20549;50.042;8.968;2022-11-02T02:21:27;10.20;99.90
30999;DHT22;20549;50.042;8.968;2022-11-02T02:23:59;10.20;99.90
30999;DHT22;20549;50.042;8.968;2022-11-02T02:28:53;10.40;99.90
30999;DHT22;20549;50.042;8.968;2022-11-02T02:31:30;10.40;99.90
30999;DHT22;20549;50.042;8.968;2022-11-02T02:34:03;10.40;99.90
30999;DHT22;20549;50.042;8.968;2022-11-02T02:36:46;10.50;99.90
30999;DHT22;20549;50.042;8.968;2022-11-02T02:39:19;10.50;99.90
30999;DHT22;20549;50.042;8.968;2022-11-02T02:41:45;10.50;99.90
30999;DHT22;20549;50.042;8.968;2022-11-02T02:44:13;10.50;99.90
30999;DHT22;20549;50.042;8.968;2022-11-02T02:46:39;10.50;99.90
30999;DHT22;20549;50.042;8.968;2022-11-02T02:49:03;10.50;99.90
30999;DHT22;20549;50.042;8.968;2022-11-02T02:51:30;10.50;99.90
30999;DHT22;20549;50.042;8.968;2022-11-02T02:54:07;10.50;99.90
30999;DHT22;20549;50.042;8.968;2022-11-02T02:56:37;10.50;99.90
30999;DHT22;20549;50.042;8.968;2022-11-02T02:59:04;10.50;99.90
30999;DHT22;20549;50.042;8.968;2022-11-02T03:01:28;10.60;99.90
30999;DHT22;20549;50.042;8.968;2022-11-02T03:03:55;10.50;99.90
30999;DHT22;20549;50.042;8.968;2022-11-02T03:06:28;10.50;99.90
30999;DHT22;20549;50.042;8.968;2022-11-02T03:09:40;10.50;99.90
30999;DHT22;20549;50.042;8.968;2022-11-02T03:11:21;10.60;99.90
30999;DHT22;20549;50.042;8.968;2022-11-02T03:14:13;10.50;99.90
30999;DHT22;20549;50.042;8.968;2022-11-02T03:19:26;10.60;99.90
30999;DHT22;20549;50.042;8.968;2022-11-02T03:22:16;10.60;99.90
30999;DHT22;20549;50.042;8.968;2022-11-02T03:24:24;10.60;99.90
30999;DHT22;20549;50.042;8.968;2022-11-02T03:32:25;10.60;99.90
30999;DHT22;20549;50.042;8.968;2022-11-02T03:34:51;10.70;99.90
30999;DHT22;20549;50.042;8.968;2022-11-02T03:37:39;10.70;99.90
30999;DHT22;20549;50.042;8.968;2022-11-02T03:40:28;10.70;99.90
30999;DHT22;20549;50.042;8.968;2022-11-02T03:42:49;10.80;99.90
30999;DHT22;20549;50.042;8.968;2022-11-02T03:45:17;10.80;99.90
30999;DHT22;20549;50.042;8.968;2022-11-02T03:47:43;10.80;99.90
30999;DHT22;20549;50.042;8.968;2022-11-02T03:50:09;10.80;99.90
30999;DHT22;20549;50.042;8.968;2022-11-02T03:52:36;10.80;99.90
30999;DHT22;20549;50.042;8.968;2022-11-02T03:55:06;10.80;99.90
30999;DHT22;20549;50.042;8.968;2022-11-02T03:57:42;10.80;99.90
30999;DHT22;20549;50.042;8.968;2022-11-02T04:00:13;10.80;99.90
30999;DHT22;20549;50.042;8.968;2022-11-02T04:02:36;10.80;99.90
30999;DHT22;20549;50.042;8.968;2022-11-02T04:05:02;10.80;99.90
30999;DHT22;20549;50.042;8.968;2022-11-02T04:07:30;10.80;99.90
30999;DHT22;20549;50.042;8.968;2022-11-02T04:09:55;10.80;99.90
30999;DHT22;20549;50.042;8.968;2022-11-02T04:12:22;10.80;99.90
30999;DHT22;20549;50.042;8.968;2022-11-02T04:15:07;10.80;99.90
30999;DHT22;20549;50.042;8.968;2022-11-02T04:17:34;10.90;99.90
30999;DHT22;20549;50.042;8.968;2022-11-02T04:20:19;10.90;99.90
30999;DHT22;20549;50.042;8.968;2022-11-02T04:22:45;11.00;99.90
30999;DHT22;20549;50.042;8.968;2022-11-02T04:25:30;11.10;99.90
30999;DHT22;20549;50.042;8.968;2022-11-02T04:28:04;11.20;99.90
30999;DHT22;20549;50.042;8.968;2022-11-02T04:30:23;11.30;99.90
30999;DHT22;20549;50.042;8.968;2022-11-02T04:32:50;11.30;99.90
30999;DHT22;20549;50.042;8.968;2022-11-02T04:35:35;11.40;99.90
30999;DHT22;20549;50.042;8.968;2022-11-02T04:38:01;11.50;99.90
30999;DHT22;20549;50.042;8.968;2022-11-02T04:40:46;11.60;99.90
30999;DHT22;20549;50.042;8.968;2022-11-02T04:43:13;11.60;99.90
30999;DHT22;20549;50.042;8.968;2022-11-02T04:45:39;11.70;99.90
30999;DHT22;20549;50.042;8.968;2022-11-02T04:48:07;11.80;99.90
30999;DHT22;20549;50.042;8.968;2022-11-02T04:50:33;11.80;99.90
30999;DHT22;20549;50.042;8.968;2022-11-02T04:53:00;11.80;99.90
30999;DHT22;20549;50.042;8.968;2022-11-02T04:55:26;11.90;99.90
30999;DHT22;20549;50.042;8.968;2022-11-02T04:57:52;12.00;99.90
30999;DHT22;20549;50.042;8.968;2022-11-02T05:00:19;12.00;99.90
30999;DHT22;20549;50.042;8.968;2022-11-02T05:02:46;12.10;99.90
30999;DHT22;20549;50.042;8.968;2022-11-02T05:05:13;12.10;99.90
30999;DHT22;20549;50.042;8.968;2022-11-02T05:07:39;12.20;99.90
30999;DHT22;20549;50.042;8.968;2022-11-02T05:10:06;12.20;99.90
30999;DHT22;20549;50.042;8.968;2022-11-02T05:12:32;12.20;99.90
30999;DHT22;20549;50.042;8.968;2022-11-02T05:14:59;12.30;99.90
30999;DHT22;20549;50.042;8.968;2022-11-02T05:17:25;12.30;99.90
30999;DHT22;20549;50.042;8.968;2022-11-02T05:19:52;12.30;99.90
30999;DHT22;20549;50.042;8.968;2022-11-02T05:22:18;12.40;99.90
30999;DHT22;20549;50.042;8.968;2022-11-02T05:24:45;12.40;99.90
30999;DHT22;20549;50.042;8.968;2022-11-02T05:27:12;12.40;99.90
30999;DHT22;20549;50.042;8.968;2022-11-02T05:29:38;12.40;99.90
30999;DHT22;20549;50.042;8.968;2022-11-02T05:32:05;12.40;99.90
30999;DHT22;20549;50.042;8.968;2022-11-02T05:34:31;12.40;99.90
30999;DHT22;20549;50.042;8.968;2022-11-02T05:36:58;12.40;99.90
30999;DHT22;20549;50.042;8.968;2022-11-02T05:39:25;12.40;99.90
30999;DHT22;20549;50.042;8.968;2022-11-02T05:41:51;12.40;99.90
30999;DHT22;20549;50.042;8.968;2022-11-02T05:44:18;12.30;99.90
30999;DHT22;20549;50.042;8.968;2022-11-02T05:46:44;12.30;99.90
30999;DHT22;20549;50.042;8.968;2022-11-02T05:49:11;12.20;99.90
30999;DHT22;20549;50.042;8.968;2022-11-02T05:51:37;12.20;99.90
30999;DHT22;20549;50.042;8.968;2022-11-02T05:54:04;12.10;99.90
30999;DHT22;20549;50.042;8.968;2022-11-02T05:56:31;12.10;99.90
30999;DHT22;20549;50.042;8.968;2022-11-02T05:58:57;12.10;99.90
30999;DHT22;20549;50.042;8.968;2022-11-02T06:01:24;12.20;99.90
30999;DHT22;20549;50.042;8.968;2022-11-02T06:03:50;12.20;99.90
30999;DHT22;20549;50.042;8.968;2022-11-02T06:06:17;12.20;99.90
30999;DHT22;20549;50.042;8.968;2022-11-02T06:08:44;12.20;99.90
30999;DHT22;20549;50.042;8.968;2022-11-02T06:11:11;12.30;99.90
30999;DHT22;20549;50.042;8.968;2022-11-02T06:13:37;12.40;99.90
30999;DHT22;20549;50.042;8.968;2022-11-02T06:16:04;12.40;99.90
30999;DHT22;20549;50.042;8.968;2022-11-02T06:18:30;12.40;99.90
30999;DHT22;20549;50.042;8.968;2022-11-02T06:20:57;12.40;99.90
30999;DHT22;20549;50.042;8.968;2022-11-02T06:23:26;12.50;99.90
30999;DHT22;20549;50.042;8.968;2022-11-02T06:25:53;12.50;99.90
30999;DHT22;20549;50.042;8.968;2022-11-02T06:28:19;12.60;99.90
30999;DHT22;20549;50.042;8.968;2022-11-02T06:30:45;12.70;99.90
30999;DHT22;20549;50.042;8.968;2022-11-02T06:33:12;12.70;99.90
30999;DHT22;20549;50.042;8.968;2022-11-02T06:35:39;12.80;99.90
30999;DHT22;20549;50.042;8.968;2022-11-02T06:38:05;12.90;99.90
30999;DHT22;20549;50.042;8.968;2022-11-02T06:40:32;13.00;99.90
30999;DHT22;20549;50.042;8.968;2022-11-02T06:42:58;13.10;99.90
30999;DHT22;20549;50.042;8.968;2022-11-02T06:45:25;13.20;99.90
30999;DHT22;20549;50.042;8.968;2022-11-02T06:47:52;13.30;99.90
30999;DHT22;20549;50.042;8.968;2022-11-02T06:50:18;13.40;99.90
30999;DHT22;20549;50.042;8.968;2022-11-02T06:52:45;13.40;99.90
30999;DHT22;20549;50.042;8.968;2022-11-02T06:55:12;13.50;99.90
30999;DHT22;20549;50.042;8.968;2022-11-02T06:57:38;13.60;99.90
30999;DHT22;20549;50.042;8.968;2022-11-02T07:00:05;13.60;99.90
30999;DHT22;20549;50.042;8.968;2022-11-02T07:02:31;13.70;99.90
30999;DHT22;20549;50.042;8.968;2022-11-02T07:04:58;13.80;99.90
30999;DHT22;20549;50.042;8.968;2022-11-02T07:07:24;13.90;99.90
30999;DHT22;20549;50.042;8.968;2022-11-02T07:09:51;13.90;99.90
30999;DHT22;20549;50.042;8.968;2022-11-02T07:12:17;14.00;99.90
30999;DHT22;20549;50.042;8.968;2022-11-02T07:14:44;14.10;99.90
30999;DHT22;20549;50.042;8.968;2022-11-02T07:17:11;14.20;99.90
30999;DHT22;20549;50.042;8.968;2022-11-02T07:19:37;14.30;99.90
30999;DHT22;20549;50.042;8.968;2022-11-02T07:22:04;14.30;99.90
30999;DHT22;20549;50.042;8.968;2022-11-02T07:24:30;14.40;99.90
30999;DHT22;20549;50.042;8.968;2022-11-02T07:26:57;14.40;99.70
30999;DHT22;20549;50.042;8.968;2022-11-02T07:29:24;14.40;99.40
30999;DHT22;20549;50.042;8.968;2022-11-02T07:31:50;14.40;99.20
30999;DHT22;20549;50.042;8.968;2022-11-02T07:34:17;14.40;99.00
30999;DHT22;20549;50.042;8.968;2022-11-02T07:36:43;14.50;99.10
30999;DHT22;20549;50.042;8.968;2022-11-02T07:39:10;14.60;99.90
30999;DHT22;20549;50.042;8.968;2022-11-02T07:41:36;14.90;99.90
30999;DHT22;20549;50.042;8.968;2022-11-02T07:44:03;15.30;99.90
30999;DHT22;20549;50.042;8.968;2022-11-02T07:46:30;15.80;99.90
30999;DHT22;20549;50.042;8.968;2022-11-02T07:48:56;16.40;99.90
30999;DHT22;20549;50.042;8.968;2022-11-02T07:51:23;17.10;99.90
30999;DHT22;20549;50.042;8.968;2022-11-02T07:53:49;17.70;99.90
30999;DHT22;20549;50.042;8.968;2022-11-02T07:56:16;18.30;99.80
30999;DHT22;20549;50.042;8.968;2022-11-02T07:58:43;18.90;98.20
30999;DHT22;20549;50.042;8.968;2022-11-02T08:01:09;19.40;96.40
30999;DHT22;20549;50.042;8.968;2022-11-02T08:03:36;19.90;94.40
30999;DHT22;20549;50.042;8.968;2022-11-02T08:06:02;20.40;93.20
30999;DHT22;20549;50.042;8.968;2022-11-02T08:08:29;20.90;92.30
30999;DHT22;20549;50.042;8.968;2022-11-02T08:11:01;21.30;90.80
30999;DHT22;20549;50.042;8.968;2022-11-02T08:13:22;21.80;89.70
30999;DHT22;20549;50.042;8.968;2022-11-02T08:15:49;22.20;86.90
30999;DHT22;20549;50.042;8.968;2022-11-02T08:18:21;22.50;84.30
30999;DHT22;20549;50.042;8.968;2022-11-02T08:20:45;22.90;82.10
30999;DHT22;20549;50.042;8.968;2022-11-02T08:23:11;23.20;81.00
30999;DHT22;20549;50.042;8.968;2022-11-02T08:25:38;23.50;79.20
30999;DHT22;20549;50.042;8.968;2022-11-02T08:28:05;23.70;77.90
30999;DHT22;20549;50.042;8.968;2022-11-02T08:30:31;24.00;76.90
30999;DHT22;20549;50.042;8.968;2022-11-02T08:33:07;24.20;75.50
30999;DHT22;20549;50.042;8.968;2022-11-02T08:35:31;24.30;73.30
30999;DHT22;20549;50.042;8.968;2022-11-02T08:37:57;24.30;71.50
30999;DHT22;20549;50.042;8.968;2022-11-02T08:40:24;24.10;69.00
30999;DHT22;20549;50.042;8.968;2022-11-02T08:43:00;23.90;67.70
30999;DHT22;20549;50.042;8.968;2022-11-02T08:45:22;23.40;67.40
30999;DHT22;20549;50.042;8.968;2022-11-02T08:47:49;23.00;67.20
30999;DHT22;20549;50.042;8.968;2022-11-02T08:50:15;22.50;67.40
30999;DHT22;20549;50.042;8.968;2022-11-02T08:52:42;22.00;67.00
30999;DHT22;20549;50.042;8.968;2022-11-02T08:55:09;21.50;67.60
30999;DHT22;20549;50.042;8.968;2022-11-02T08:57:45;21.10;68.20
30999;DHT22;20549;50.042;8.968;2022-11-02T09:00:11;20.60;68.90
30999;DHT22;20549;50.042;8.968;2022-11-02T09:02:37;20.30;69.40
30999;DHT22;20549;50.042;8.968;2022-11-02T09:05:04;20.10;70.70
30999;DHT22;20549;50.042;8.968;2022-11-02T09:07:30;19.90;71.80
30999;DHT22;20549;50.042;8.968;2022-11-02T09:09:57;19.80;71.60
30999;DHT22;20549;50.042;8.968;2022-11-02T09:12:23;19.70;71.60
30999;DHT22;20549;50.042;8.968;2022-11-02T09:14:50;19.50;72.00
30999;DHT22;20549;50.042;8.968;2022-11-02T09:17:17;19.40;72.90
30999;DHT22;20549;50.042;8.968;2022-11-02T09:19:43;19.30;72.70
30999;DHT22;20549;50.042;8.968;2022-11-02T09:22:10;19.30;73.50
30999;DHT22;20549;50.042;8.968;2022-11-02T09:24:36;19.30;74.20
30999;DHT22;20549;50.042;8.968;2022-11-02T09:27:03;19.30;74.70
30999;DHT22;20549;50.042;8.968;2022-11-02T09:29:30;19.40;74.70
30999;DHT22;20549;50.042;8.968;2022-11-02T09:31:56;19.40;73.60
30999;DHT22;20549;50.042;8.968;2022-11-02T09:34:23;19.40;72.90
30999;DHT22;20549;50.042;8.968;2022-11-02T09:36:49;19.40;72.80
30999;DHT22;20549;50.042;8.968;2022-11-02T09:39:16;19.40;72.70
30999;DHT22;20549;50.042;8.968;2022-11-02T09:44:47;19.20;73.40
30999;DHT22;20549;50.042;8.968;2022-11-02T09:46:56;19.20;73.00
30999;DHT22;20549;50.042;8.968;2022-11-02T09:49:23;19.10;73.30
30999;DHT22;20549;50.042;8.968;2022-11-02T09:51:53;19.10;73.30
30999;DHT22;20549;50.042;8.968;2022-11-02T09:54:26;19.10;72.90
30999;DHT22;20549;50.042;8.968;2022-11-02T09:56:51;19.10;73.20
30999;DHT22;20549;50.042;8.968;2022-11-02T09:59:18;19.20;73.20
30999;DHT22;20549;50.042;8.968;2022-11-02T10:01:58;19.20;73.00
30999;DHT22;20549;50.042;8.968;2022-11-02T10:10:11;19.20;72.70
30999;DHT22;20549;50.042;8.968;2022-11-02T10:12:57;19.20;72.50
30999;DHT22;20549;50.042;8.968;2022-11-02T10:15:39;19.20;72.30
30999;DHT22;20549;50.042;8.968;2022-11-02T10:18:05;19.20;71.80
30999;DHT22;20549;50.042;8.968;2022-11-02T10:20:43;19.20;71.80
30999;DHT22;20549;50.042;8.968;2022-11-02T10:23:07;19.10;71.20
30999;DHT22;20549;50.042;8.968;2022-11-02T10:25:33;19.10;71.40
30999;DHT22;20549;50.042;8.968;2022-11-02T10:28:03;19.00;71.20
30999;DHT22;20549;50.042;8.968;2022-11-02T10:30:29;19.00;71.00
30999;DHT22;20549;50.042;8.968;2022-11-02T10:32:55;18.90;71.50
30999;DHT22;20549;50.042;8.968;2022-11-02T10:36:21;18.90;71.40
30999;DHT22;20549;50.042;8.968;2022-11-02T10:38:15;18.80;71.40
30999;DHT22;20549;50.042;8.968;2022-11-02T10:49:12;18.70;71.00
30999;DHT22;20549;50.042;8.968;2022-11-02T10:51:33;18.70;70.90
30999;DHT22;20549;50.042;8.968;2022-11-02T10:54:00;18.70;70.80
30999;DHT22;20549;50.042;8.968;2022-11-02T10:56:32;18.70;70.90
30999;DHT22;20549;50.042;8.968;2022-11-02T10:59:01;18.70;70.90
30999;DHT22;20549;50.042;8.968;2022-11-02T11:01:26;18.70;70.60
30999;DHT22;20549;50.042;8.968;2022-11-02T11:04:01;18.70;70.30
30999;DHT22;20549;50.042;8.968;2022-11-02T11:06:33;18.70;69.90
30999;DHT22;20549;50.042;8.968;2022-11-02T11:09:04;18.70;69.70
30999;DHT22;20549;50.042;8.968;2022-11-02T11:11:31;18.70;69.60
30999;DHT22;20549;50.042;8.968;2022-11-02T11:14:17;18.70;69.70
30999;DHT22;20549;50.042;8.968;2022-11-02T11:16:45;18.70;69.80
30999;DHT22;20549;50.042;8.968;2022-11-02T11:19:20;18.60;69.70
30999;DHT22;20549;50.042;8.968;2022-11-02T11:21:45;18.60;69.60
30999;DHT22;20549;50.042;8.968;2022-11-02T11:24:27;18.60;69.10
30999;DHT22;20549;50.042;8.968;2022-11-02T11:29:28;18.60;68.10
30999;DHT22;20549;50.042;8.968;2022-11-02T11:31:52;18.70;68.80
30999;DHT22;20549;50.042;8.968;2022-11-02T11:34:23;18.60;68.40
30999;DHT22;20549;50.042;8.968;2022-11-02T11:36:48;18.70;68.40
30999;DHT22;20549;50.042;8.968;2022-11-02T11:39:22;18.60;67.90
30999;DHT22;20549;50.042;8.968;2022-11-02T11:41:47;18.60;67.70
30999;DHT22;20549;50.042;8.968;2022-11-02T11:44:14;18.60;67.60
30999;DHT22;20549;50.042;8.968;2022-11-02T11:46:47;18.60;67.10
30999;DHT22;20549;50.042;8.968;2022-11-02T11:49:38;18.60;67.60
30999;DHT22;20549;50.042;8.968;2022-11-02T11:51:42;18.60;67.90
30999;DHT22;20549;50.042;8.968;2022-11-02T11:54:30;18.60;67.70
30999;DHT22;20549;50.042;8.968;2022-11-02T11:57:25;18.60;67.60
30999;DHT22;20549;50.042;8.968;2022-11-02T11:59:50;18.60;67.80
30999;DHT22;20549;50.042;8.968;2022-11-02T12:05:11;18.60;68.70
30999;DHT22;20549;50.042;8.968;2022-11-02T12:10:21;18.60;68.20
30999;DHT22;20549;50.042;8.968;2022-11-02T12:13:05;18.60;68.00
30999;DHT22;20549;50.042;8.968;2022-11-02T12:15:52;18.60;68.10
30999;DHT22;20549;50.042;8.968;2022-11-02T12:21:09;18.60;67.90
30999;DHT22;20549;50.042;8.968;2022-11-02T12:29:10;18.60;67.30
30999;DHT22;20549;50.042;8.968;2022-11-02T12:31:45;18.60;67.10
30999;DHT22;20549;50.042;8.968;2022-11-02T12:36:54;18.60;66.20
30999;DHT22;20549;50.042;8.968;2022-11-02T12:39:30;18.60;66.20
30999;DHT22;20549;50.042;8.968;2022-11-02T12:42:11;18.60;65.80
30999;DHT22;20549;50.042;8.968;2022-11-02T12:48:00;18.60;65.70
30999;DHT22;20549;50.042;8.968;2022-11-02T12:55:29;18.60;65.30
30999;DHT22;20549;50.042;8.968;2022-11-02T12:57:57;18.60;65.00
30999;DHT22;20549;50.042;8.968;2022-11-02T13:00:21;18.60;64.50
30999;DHT22;20549;50.042;8.968;2022-11-02T13:03:17;18.60;65.10
30999;DHT22;20549;50.042;8.968;2022-11-02T13:05:38;18.60;64.80
30999;DHT22;20549;50.042;8.968;2022-11-02T13:08:11;18.60;65.00
30999;DHT22;20549;50.042;8.968;2022-11-02T13:10:46;18.60;65.10
30999;DHT22;20549;50.042;8.968;2022-11-02T13:13:12;18.60;65.00
30999;DHT22;20549;50.042;8.968;2022-11-02T13:15:35;18.70;64.50
30999;DHT22;20549;50.042;8.968;2022-11-02T13:18:14;18.70;64.20
30999;DHT22;20549;50.042;8.968;2022-11-02T13:20:51;18.70;64.20
30999;DHT22;20549;50.042;8.968;2022-11-02T13:23:38;18.70;64.50
30999;DHT22;20549;50.042;8.968;2022-11-02T13:33:48;18.60;63.80
30999;DHT22;20549;50.042;8.968;2022-11-02T13:36:14;18.50;63.70
30999;DHT22;20549;50.042;8.968;2022-11-02T13:38:45;18.50;63.90
30999;DHT22;20549;50.042;8.968;2022-11-02T13:44:03;18.40;63.60
30999;DHT22;20549;50.042;8.968;2022-11-02T13:46:45;18.40;63.20
30999;DHT22;20549;50.042;8.968;2022-11-02T13:49:24;18.30;63.40
30999;DHT22;20549;50.042;8.968;2022-11-02T13:51:57;18.30;63.90
30999;DHT22;20549;50.042;8.968;2022-11-02T13:54:27;18.20;63.60
30999;DHT22;20549;50.042;8.968;2022-11-02T13:56:51;18.20;63.60
30999;DHT22;20549;50.042;8.968;2022-11-02T13:59:20;18.20;63.60
30999;DHT22;20549;50.042;8.968;2022-11-02T14:01:43;18.10;63.70
30999;DHT22;20549;50.042;8.968;2022-11-02T14:04:11;18.10;63.50
30999;DHT22;20549;50.042;8.968;2022-11-02T14:06:47;18.00;63.50
30999;DHT22;20549;50.042;8.968;2022-11-02T14:09:09;18.00;63.60
30999;DHT22;20549;50.042;8.968;2022-11-02T14:11:45;17.90;63.50
30999;DHT22;20549;50.042;8.968;2022-11-02T14:19:29;17.90;64.00
30999;DHT22;20549;50.042;8.968;2022-11-02T14:27:01;17.70;63.80
30999;DHT22;20549;50.042;8.968;2022-11-02T14:35:12;17.60;64.10
30999;DHT22;20549;50.042;8.968;2022-11-02T14:43:56;17.50;64.40
30999;DHT22;20549;50.042;8.968;2022-11-02T14:48:51;17.40;64.70
30999;DHT22;20549;50.042;8.968;2022-11-02T14:51:16;17.40;64.70
30999;DHT22;20549;50.042;8.968;2022-11-02T14:53:41;17.30;64.60
30999;DHT22;20549;50.042;8.968;2022-11-02T14:56:07;17.20;64.60
30999;DHT22;20549;50.042;8.968;2022-11-02T14:58:46;17.10;64.70
30999;DHT22;20549;50.042;8.968;2022-11-02T15:01:10;17.10;64.60
30999;DHT22;20549;50.042;8.968;2022-11-02T15:03:36;17.10;64.60
30999;DHT22;20549;50.042;8.968;2022-11-02T15:06:21;17.10;64.60
30999;DHT22;20549;50.042;8.968;2022-11-02T15:08:54;17.00;64.60
30999;DHT22;20549;50.042;8.968;2022-11-02T15:11:55;16.90;64.70
30999;DHT22;20549;50.042;8.968;2022-11-02T15:17:01;16.90;64.90
30999;DHT22;20549;50.042;8.968;2022-11-02T15:19:43;16.80;64.90
30999;DHT22;20549;50.042;8.968;2022-11-02T15:25:12;16.70;64.90
30999;DHT22;20549;50.042;8.968;2022-11-02T15:27:39;16.60;65.00
30999;DHT22;20549;50.042;8.968;2022-11-02T15:30:05;16.50;65.00
30999;DHT22;20549;50.042;8.968;2022-11-02T15:32:32;16.50;65.20
30999;DHT22;20549;50.042;8.968;2022-11-02T15:34:57;16.40;65.30
30999;DHT22;20549;50.042;8.968;2022-11-02T15:37:25;16.30;65.40
30999;DHT22;20549;50.042;8.968;2022-11-02T15:39:51;16.20;65.50
30999;DHT22;20549;50.042;8.968;2022-11-02T15:42:37;16.20;65.70
30999;DHT22;20549;50.042;8.968;2022-11-02T15:45:17;16.10;65.80
30999;DHT22;20549;50.042;8.968;2022-11-02T15:53:11;15.80;66.10
30999;DHT22;20549;50.042;8.968;2022-11-02T15:55:39;15.70;66.20
30999;DHT22;20549;50.042;8.968;2022-11-02T16:00:30;15.50;66.50
30999;DHT22;20549;50.042;8.968;2022-11-02T16:03:01;15.30;66.60
30999;DHT22;20549;50.042;8.968;2022-11-02T16:05:29;15.20;66.80
30999;DHT22;20549;50.042;8.968;2022-11-02T16:07:54;15.10;67.00
30999;DHT22;20549;50.042;8.968;2022-11-02T16:10:24;15.00;67.20
30999;DHT22;20549;50.042;8.968;2022-11-02T16:13:41;14.90;67.40
30999;DHT22;20549;50.042;8.968;2022-11-02T16:15:22;14.80;67.50
30999;DHT22;20549;50.042;8.968;2022-11-02T16:17:49;14.70;67.80
30999;DHT22;20549;50.042;8.968;2022-11-02T16:20:19;14.60;68.00
30999;DHT22;20549;50.042;8.968;2022-11-02T16:22:54;14.50;68.20
30999;DHT22;20549;50.042;8.968;2022-11-02T16:25:35;14.40;68.40
30999;DHT22;20549;50.042;8.968;2022-11-02T16:30:39;14.20;68.70
30999;DHT22;20549;50.042;8.968;2022-11-02T16:33:07;14.10;68.90
30999;DHT22;20549;50.042;8.968;2022-11-02T16:35:32;14.00;69.20
30999;DHT22;20549;50.042;8.968;2022-11-02T16:37:59;13.90;69.50
30999;DHT22;20549;50.042;8.968;2022-11-02T16:40:25;13.80;69.70
30999;DHT22;20549;50.042;8.968;2022-11-02T16:42:52;13.70;69.90
30999;DHT22;20549;50.042;8.968;2022-11-02T16:45:31;13.60;70.00
30999;DHT22;20549;50.042;8.968;2022-11-02T16:47:54;13.50;70.30
30999;DHT22;20549;50.042;8.968;2022-11-02T16:50:25;13.50;70.40
30999;DHT22;20549;50.042;8.968;2022-11-02T16:52:54;13.40;70.60
30999;DHT22;20549;50.042;8.968;2022-11-02T16:55:36;13.30;70.80
30999;DHT22;20549;50.042;8.968;2022-11-02T16:58:01;13.20;71.00
30999;DHT22;20549;50.042;8.968;2022-11-02T17:00:28;13.10;71.20
30999;DHT22;20549;50.042;8.968;2022-11-02T17:02:54;13.10;71.50
30999;DHT22;20549;50.042;8.968;2022-11-02T17:05:22;13.00;71.80
30999;DHT22;20549;50.042;8.968;2022-11-02T17:08:03;12.90;72.10
30999;DHT22;20549;50.042;8.968;2022-11-02T17:10:32;12.90;72.40
30999;DHT22;20549;50.042;8.968;2022-11-02T17:12:58;12.80;72.60
30999;DHT22;20549;50.042;8.968;2022-11-02T17:15:28;12.70;72.80
30999;DHT22;20549;50.042;8.968;2022-11-02T17:20:33;12.70;73.10
30999;DHT22;20549;50.042;8.968;2022-11-02T17:23:00;12.50;73.20
30999;DHT22;20549;50.042;8.968;2022-11-02T17:25:27;12.50;73.40
30999;DHT22;20549;50.042;8.968;2022-11-02T17:27:53;12.40;73.50
30999;DHT22;20549;50.042;8.968;2022-11-02T17:33:08;12.30;74.10
30999;DHT22;20549;50.042;8.968;2022-11-02T17:35:33;12.20;74.20